createdAt,value
2022-08-04T00:01:40.702Z,101218.31
2022-08-04T00:04:43.759Z,101225.84
2022-08-04T00:07:44.775Z,101221.78
2022-08-04T00:10:17.310Z,101222.34
2022-08-04T00:12:51.141Z,101219.34
2022-08-04T00:15:20.062Z,101219.84
2022-08-04T00:18:03.822Z,101222.81
2022-08-04T00:20:37.920Z,101219.84
2022-08-04T00:23:07.670Z,101226.94
2022-08-04T00:25:39.679Z,101228.81
2022-08-04T00:28:06.717Z,101223.06
2022-08-04T00:30:34.164Z,101227.16
2022-08-04T00:33:02.028Z,101213.88
2022-08-04T00:35:29.906Z,101219.25
2022-08-04T00:37:58.298Z,101224.66
2022-08-04T00:41:14.044Z,101217.53
2022-08-04T00:44:25.470Z,101215.63
2022-08-04T00:47:07.341Z,101221.59
2022-08-04T00:49:58.160Z,101215.34
2022-08-04T00:52:34.143Z,101212.66
2022-08-04T00:55:12.435Z,101219.34
2022-08-04T00:58:19.762Z,101218.50
2022-08-04T01:04:11.327Z,101211.69
2022-08-04T01:07:24.587Z,101213.00
2022-08-04T01:10:14.266Z,101208.41
2022-08-04T01:13:15.301Z,101211.31
2022-08-04T01:16:08.021Z,101211.56
2022-08-04T01:18:41.092Z,101210.16
2022-08-04T01:21:29.068Z,101212.84
2022-08-04T01:24:24.055Z,101218.06
2022-08-04T01:27:05.655Z,101220.50
2022-08-04T01:29:48.901Z,101217.94
2022-08-04T01:32:25.565Z,101214.66
2022-08-04T01:35:21.693Z,101221.63
2022-08-04T01:38:28.393Z,101220.31
2022-08-04T01:41:00.411Z,101222.00
2022-08-04T01:43:32.549Z,101208.84
2022-08-04T01:46:01.960Z,101219.19
2022-08-04T01:48:30.103Z,101207.81
2022-08-04T01:51:06.333Z,101213.78
2022-08-04T01:53:39.851Z,101215.44
2022-08-04T01:56:09.908Z,101208.78
2022-08-04T01:58:39.206Z,101219.13
2022-08-04T02:01:12.690Z,101213.38
2022-08-04T02:04:18.174Z,101220.16
2022-08-04T02:07:19.835Z,101212.00
2022-08-04T02:10:06.325Z,101206.00
2022-08-04T02:13:03.629Z,101206.59
2022-08-04T02:16:15.070Z,101206.53
2022-08-04T02:19:14.633Z,101202.19
2022-08-04T02:21:43.903Z,101205.94
2022-08-04T02:24:18.634Z,101208.59
2022-08-04T02:26:53.232Z,101210.13
2022-08-04T02:29:31.740Z,101206.69
2022-08-04T02:32:05.495Z,101208.03
2022-08-04T02:35:25.645Z,101201.53
2022-08-04T02:38:06.550Z,101204.25
2022-08-04T02:40:34.052Z,101206.88
2022-08-04T02:43:05.404Z,101213.34
2022-08-04T02:45:37.668Z,101207.53
2022-08-04T02:48:23.647Z,101208.72
2022-08-04T02:50:54.654Z,101205.06
2022-08-04T02:53:23.259Z,101201.72
2022-08-04T02:55:56.368Z,101199.19
2022-08-04T02:58:26.162Z,101197.69
2022-08-04T03:00:53.257Z,101199.78
2022-08-04T03:03:20.305Z,101196.41
2022-08-04T03:06:13.362Z,101201.84
2022-08-04T03:09:00.458Z,101204.47
2022-08-04T03:11:58.127Z,101200.94
2022-08-04T03:14:55.511Z,101200.81
2022-08-04T03:18:08.631Z,101205.28
2022-08-04T03:21:15.593Z,101204.88
2022-08-04T03:24:27.597Z,101204.97
2022-08-04T03:27:10.168Z,101204.72
2022-08-04T03:30:03.390Z,101211.63
2022-08-04T03:32:55.440Z,101207.75
2022-08-04T03:35:34.333Z,101210.56
2022-08-04T03:38:44.145Z,101207.13
2022-08-04T03:42:20.356Z,101205.16
2022-08-04T03:45:35.099Z,101201.31
2022-08-04T03:48:48.408Z,101198.34
2022-08-04T03:52:11.098Z,101201.13
2022-08-04T03:55:06.170Z,101209.72
2022-08-04T03:57:57.654Z,101205.47
2022-08-04T04:00:36.515Z,101208.41
2022-08-04T04:03:52.694Z,101210.69
2022-08-04T04:06:53.813Z,101210.38
2022-08-04T04:09:22.431Z,101212.63
2022-08-04T04:12:14.282Z,101221.38
2022-08-04T04:15:14.785Z,101216.19
2022-08-04T04:18:09.755Z,101223.28
2022-08-04T04:21:01.004Z,101226.94
2022-08-04T04:23:58.788Z,101229.25
2022-08-04T04:27:03.501Z,101227.31
2022-08-04T04:29:59.420Z,101229.06
2022-08-04T04:33:07.799Z,101224.75
2022-08-04T04:35:59.916Z,101227.66
2022-08-04T04:39:09.238Z,101224.66
2022-08-04T04:41:54.366Z,101227.25
2022-08-04T04:45:15.064Z,101227.50
2022-08-04T04:48:14.275Z,101231.25
2022-08-04T04:51:08.990Z,101238.00
2022-08-04T04:54:06.769Z,101233.19
2022-08-04T04:57:17.741Z,101235.09
2022-08-04T05:00:09.344Z,101236.88
2022-08-04T05:03:09.368Z,101231.25
2022-08-04T05:06:17.406Z,101235.22
2022-08-04T05:09:41.019Z,101242.16
2022-08-04T05:14:30.842Z,101238.94
2022-08-04T05:15:22.670Z,101243.06
2022-08-04T05:17:55.473Z,101238.53
2022-08-04T05:20:34.537Z,101239.66
2022-08-04T05:23:23.319Z,101241.59
2022-08-04T05:26:06.532Z,101232.66
2022-08-04T05:28:39.998Z,101237.13
2022-08-04T05:31:24.588Z,101236.63
2022-08-04T05:34:03.278Z,101231.78
2022-08-04T05:36:49.712Z,101232.31
2022-08-04T05:39:25.359Z,101227.72
2022-08-04T05:41:55.804Z,101228.59
2022-08-04T05:44:28.270Z,101231.53
2022-08-04T05:46:58.589Z,101225.31
2022-08-04T05:49:28.974Z,101226.19
2022-08-04T05:52:01.329Z,101224.03
2022-08-04T05:54:31.615Z,101232.53
2022-08-04T05:57:00.058Z,101236.78
2022-08-04T05:59:29.399Z,101220.28
2022-08-04T06:02:00.067Z,101226.19
2022-08-04T06:04:40.101Z,101224.66
2022-08-04T06:07:11.277Z,101213.72
2022-08-04T06:09:38.430Z,101225.31
2022-08-04T06:12:14.852Z,101224.13
2022-08-04T06:14:48.819Z,101223.84
2022-08-04T06:19:58.941Z,101227.16
2022-08-04T06:20:23.245Z,101229.81
2022-08-04T06:22:57.541Z,101220.53
2022-08-04T06:25:45.216Z,101230.41
2022-08-04T06:28:13.433Z,101223.66
2022-08-04T06:30:41.346Z,101226.56
2022-08-04T06:33:33.661Z,101220.25
2022-08-04T06:36:20.847Z,101220.50
2022-08-04T06:38:50.785Z,101212.97
2022-08-04T06:41:28.952Z,101215.00
2022-08-04T06:44:01.459Z,101220.53
2022-08-04T06:46:30.302Z,101217.69
2022-08-04T06:48:58.304Z,101212.66
2022-08-04T06:51:35.550Z,101212.03
2022-08-04T06:54:05.287Z,101207.31
2022-08-04T06:56:34.810Z,101215.03
2022-08-04T06:59:03.620Z,101213.03
2022-08-04T07:01:32.255Z,101217.78
2022-08-04T07:04:00.089Z,101210.69
2022-08-04T07:06:27.332Z,101213.97
2022-08-04T07:08:56.488Z,101209.03
2022-08-04T07:11:24.616Z,101214.84
2022-08-04T07:13:52.417Z,101205.09
2022-08-04T07:16:21.960Z,101208.72
2022-08-04T07:18:58.365Z,101217.22
2022-08-04T07:21:39.613Z,101212.16
2022-08-04T07:24:07.085Z,101200.16
2022-08-04T07:26:34.944Z,101208.47
2022-08-04T07:29:02.166Z,101206.06
2022-08-04T07:31:33.707Z,101200.72
2022-08-04T07:34:16.614Z,101207.72
2022-08-04T07:36:51.299Z,101208.88
2022-08-04T07:39:28.031Z,101203.97
2022-08-04T07:41:58.733Z,101202.78
2022-08-04T07:44:26.200Z,101209.09
2022-08-04T07:46:54.133Z,101191.81
2022-08-04T07:49:56.043Z,101198.31
2022-08-04T07:52:09.745Z,101203.03
2022-08-04T07:54:39.176Z,101194.75
2022-08-04T07:57:06.263Z,101200.44
2022-08-04T07:59:33.568Z,101195.78
2022-08-04T08:02:02.505Z,101202.63
2022-08-04T08:04:30.387Z,101198.13
2022-08-04T08:06:58.925Z,101199.41
2022-08-04T08:09:26.675Z,101195.94
2022-08-04T08:12:38.226Z,101195.59
2022-08-04T08:14:43.684Z,101191.91
2022-08-04T08:17:10.783Z,101193.38
2022-08-04T08:19:38.492Z,101200.00
2022-08-04T08:22:06.047Z,101187.66
2022-08-04T08:24:37.201Z,101188.59
2022-08-04T08:27:06.939Z,101179.19
2022-08-04T08:29:35.637Z,101184.25
2022-08-04T08:32:08.051Z,101187.75
2022-08-04T08:34:36.160Z,101193.16
2022-08-04T08:37:18.588Z,101190.22
2022-08-04T08:40:40.453Z,101186.00
2022-08-04T08:44:36.373Z,101183.25
2022-08-04T08:48:06.291Z,101191.31
2022-08-04T08:51:40.454Z,101182.63
2022-08-04T08:54:33.877Z,101183.97
2022-08-04T08:57:22.007Z,101188.94
2022-08-04T09:00:03.158Z,101197.53
2022-08-04T09:02:48.807Z,101184.28
2022-08-04T09:06:01.684Z,101180.63
2022-08-04T09:08:49.547Z,101176.13
2022-08-04T09:11:26.219Z,101187.06
2022-08-04T09:14:12.985Z,101186.16
2022-08-04T09:16:54.296Z,101176.88
2022-08-04T09:19:38.850Z,101174.13
2022-08-04T09:22:24.416Z,101167.97
2022-08-04T09:25:08.888Z,101173.06
2022-08-04T09:27:50.248Z,101159.66
2022-08-04T09:30:22.124Z,101150.47
2022-08-04T09:33:16.227Z,101172.22
2022-08-04T09:35:46.580Z,101179.75
2022-08-04T09:38:51.905Z,101170.91
2022-08-04T09:42:26.089Z,101185.09
2022-08-04T09:45:26.666Z,101174.38
2022-08-04T09:48:10.121Z,101164.69
2022-08-04T09:50:49.999Z,101167.97
2022-08-04T09:53:51.896Z,101171.84
2022-08-04T09:56:52.044Z,101160.81
2022-08-04T09:59:36.025Z,101165.91
2022-08-04T10:02:09.550Z,101164.78
2022-08-04T10:04:39.561Z,101177.97
2022-08-04T10:07:28.352Z,101158.31
2022-08-04T10:10:30.515Z,101165.22
2022-08-04T10:13:31.440Z,101156.91
2022-08-04T10:16:23.179Z,101149.72
2022-08-04T10:19:27.099Z,101157.53
2022-08-04T10:22:29.063Z,101138.00
2022-08-04T10:26:03.167Z,101139.13
2022-08-04T10:28:15.724Z,101151.25
2022-08-04T10:30:51.919Z,101140.56
2022-08-04T10:33:47.383Z,101150.13
2022-08-04T10:36:19.841Z,101144.72
2022-08-04T10:39:06.076Z,101141.22
2022-08-04T10:42:15.967Z,101146.59
2022-08-04T10:45:18.089Z,101141.28
2022-08-04T10:48:34.414Z,101142.13
2022-08-04T10:51:57.598Z,101134.13
2022-08-04T10:56:07.778Z,101135.56
2022-08-04T10:58:47.792Z,101137.81
2022-08-04T11:01:59.545Z,101134.44
2022-08-04T11:04:47.526Z,101136.13
2022-08-04T11:07:15.552Z,101135.06
2022-08-04T11:09:45.625Z,101133.66
2022-08-04T11:12:25.494Z,101128.16
2022-08-04T11:15:14.845Z,101126.28
2022-08-04T11:17:50.334Z,101123.44
2022-08-04T11:20:35.548Z,101116.34
2022-08-04T11:23:18.209Z,101113.13
2022-08-04T11:26:15.597Z,101125.88
2022-08-04T11:29:16.766Z,101116.88
2022-08-04T11:31:51.819Z,101118.59
2022-08-04T11:34:27.831Z,101117.41
2022-08-04T11:37:14.671Z,101112.56
2022-08-04T11:40:04.102Z,101118.38
2022-08-04T11:42:37.061Z,101123.34
2022-08-04T11:45:25.106Z,101104.72
2022-08-04T11:48:05.888Z,101111.84
2022-08-04T11:50:45.136Z,101111.88
2022-08-04T11:53:19.425Z,101113.38
2022-08-04T11:56:06.898Z,101113.25
2022-08-04T11:58:36.342Z,101115.22
2022-08-04T12:01:58.258Z,101103.06
2022-08-04T12:05:00.005Z,101102.53
2022-08-04T12:07:48.835Z,101095.44
2022-08-04T12:10:37.896Z,101094.59
2022-08-04T12:13:42.064Z,101109.47
2022-08-04T12:16:22.913Z,101106.56
2022-08-04T12:19:01.520Z,101096.22
2022-08-04T12:21:50.289Z,101096.81
2022-08-04T12:25:05.203Z,101098.44
2022-08-04T12:27:48.009Z,101097.94
2022-08-04T12:31:02.581Z,101102.84
2022-08-04T12:34:03.522Z,101103.63
2022-08-04T12:36:45.203Z,101097.75
2022-08-04T12:39:17.941Z,101087.34
2022-08-04T12:42:07.413Z,101092.22
2022-08-04T12:44:42.898Z,101083.38
2022-08-04T12:47:28.110Z,101094.06
2022-08-04T12:50:03.614Z,101083.41
2022-08-04T12:53:04.073Z,101079.75
2022-08-04T12:55:35.358Z,101062.72
2022-08-04T12:58:11.729Z,101074.63
2022-08-04T13:02:07.512Z,101080.03
2022-08-04T13:04:29.137Z,101067.22
2022-08-04T13:07:13.996Z,101059.94
2022-08-04T13:09:42.148Z,101074.47
2022-08-04T13:12:15.347Z,101070.84
2022-08-04T13:14:44.980Z,101072.88
2022-08-04T13:17:12.684Z,101068.25
2022-08-04T13:19:46.203Z,101067.31
2022-08-04T13:22:23.361Z,101057.69
2022-08-04T13:24:56.624Z,101057.53
2022-08-04T13:27:48.290Z,101060.22
2022-08-04T13:30:23.228Z,101057.44
2022-08-04T13:33:00.779Z,101052.00
2022-08-04T13:35:54.282Z,101054.22
2022-08-04T13:38:18.217Z,101053.44
2022-08-04T13:40:46.677Z,101059.03
2022-08-04T13:44:15.399Z,101056.81
2022-08-04T13:46:37.012Z,101054.00
2022-08-04T13:52:10.937Z,101046.19
2022-08-04T13:54:47.713Z,101047.78
2022-08-04T13:57:31.919Z,101049.88
2022-08-04T14:00:09.698Z,101049.16
2022-08-04T14:02:52.877Z,101043.50
2022-08-04T14:05:59.247Z,101039.75
2022-08-04T14:08:31.509Z,101045.72
2022-08-04T14:10:58.759Z,101028.59
2022-08-04T14:13:41.750Z,101027.19
2022-08-04T14:16:27.436Z,101021.69
2022-08-04T14:19:01.973Z,101029.94
2022-08-04T14:21:35.589Z,101030.66
2022-08-04T14:24:02.975Z,101028.28
2022-08-04T14:26:34.089Z,101035.44
2022-08-04T14:29:26.424Z,101022.16
2022-08-04T14:32:03.110Z,101020.88
2022-08-04T14:34:33.489Z,101022.19
2022-08-04T14:37:17.323Z,101020.44
2022-08-04T14:40:08.783Z,101014.56
2022-08-04T14:42:43.511Z,101015.59
2022-08-04T14:45:12.157Z,101004.03
2022-08-04T14:47:40.832Z,101011.13
2022-08-04T14:50:10.018Z,101012.41
2022-08-04T14:52:38.705Z,100999.78
2022-08-04T14:55:22.264Z,101011.63
2022-08-04T14:58:34.127Z,100999.56
2022-08-04T15:00:40.199Z,101003.56
2022-08-04T15:03:10.162Z,101006.41
2022-08-04T15:06:01.676Z,100995.03
2022-08-04T15:08:31.469Z,101000.66
2022-08-04T15:11:02.799Z,101005.69
2022-08-04T15:13:32.460Z,101002.44
2022-08-04T15:16:06.876Z,100989.06
2022-08-04T15:18:37.556Z,100998.19
2022-08-04T15:21:20.467Z,101001.25
2022-08-04T15:23:47.530Z,101002.59
2022-08-04T15:26:25.798Z,100990.63
2022-08-04T15:28:58.734Z,100992.13
2022-08-04T15:32:06.829Z,100990.56
2022-08-04T15:34:14.982Z,100994.13
2022-08-04T15:36:57.142Z,100985.09
2022-08-04T15:39:53.208Z,100999.44
2022-08-04T15:42:49.515Z,100997.75
2022-08-04T15:46:41.109Z,100997.00
2022-08-04T15:48:13.458Z,100987.63
2022-08-04T15:50:58.880Z,100987.22
2022-08-04T15:54:01.340Z,100993.44
2022-08-04T15:56:23.983Z,100987.22
2022-08-04T15:58:55.159Z,100990.38
2022-08-04T16:01:23.546Z,100987.50
2022-08-04T16:04:00.611Z,100982.25
2022-08-04T16:06:29.759Z,100987.78
2022-08-04T16:09:02.998Z,100979.69
2022-08-04T16:11:32.161Z,100985.25
2022-08-04T16:13:59.527Z,100981.44
2022-08-04T16:16:42.279Z,100990.41
2022-08-04T16:19:10.719Z,100984.38
2022-08-04T16:22:00.148Z,100979.00
2022-08-04T16:24:42.215Z,100988.78
2022-08-04T16:27:13.903Z,100980.22
2022-08-04T16:29:43.869Z,100985.44
2022-08-04T16:32:12.499Z,100984.38
2022-08-04T16:35:04.174Z,100980.22
2022-08-04T16:37:38.473Z,100977.66
2022-08-04T16:40:34.041Z,100973.59
2022-08-04T16:43:15.652Z,100969.59
2022-08-04T16:46:00.397Z,100967.91
2022-08-04T16:48:35.680Z,100979.81
2022-08-04T16:51:07.131Z,100968.47
2022-08-04T16:54:04.039Z,100971.53
2022-08-04T16:56:34.189Z,100981.91
2022-08-04T16:59:10.697Z,100977.34
2022-08-04T17:01:49.087Z,100972.72
2022-08-04T17:04:16.877Z,100973.94
2022-08-04T17:06:46.711Z,100975.84
2022-08-04T17:09:18.812Z,100983.41
2022-08-04T17:11:48.865Z,100973.41
2022-08-04T17:14:23.682Z,100968.66
2022-08-04T17:16:52.758Z,100974.47
2022-08-04T17:19:26.414Z,100971.81
2022-08-04T17:22:20.726Z,100978.75
2022-08-04T17:24:49.379Z,100976.19
2022-08-04T17:28:06.130Z,100971.91
2022-08-04T17:30:08.053Z,100969.41
2022-08-04T17:32:35.198Z,100978.97
2022-08-04T17:35:06.839Z,100966.50
2022-08-04T17:37:39.051Z,100970.56
2022-08-04T17:40:18.467Z,100978.09
2022-08-04T17:43:01.238Z,100979.97
2022-08-04T17:48:24.131Z,100979.75
2022-08-04T17:50:52.558Z,100967.16
2022-08-04T17:54:02.828Z,100976.19
2022-08-04T17:56:51.908Z,100971.19
2022-08-04T17:59:52.227Z,100975.41
2022-08-04T18:02:08.875Z,100969.09
2022-08-04T18:04:39.387Z,100966.47
2022-08-04T18:08:40.019Z,100968.47
2022-08-04T18:10:55.339Z,100972.00
2022-08-04T18:13:25.922Z,100971.03
2022-08-04T18:16:05.329Z,100978.78
2022-08-04T18:18:33.113Z,100972.19
2022-08-04T18:21:02.662Z,100972.19
2022-08-04T18:23:32.198Z,100977.50
2022-08-04T18:26:02.098Z,100973.22
2022-08-04T18:28:30.665Z,100976.59
2022-08-04T18:30:58.284Z,100973.53
2022-08-04T18:33:39.557Z,100978.06
2022-08-04T18:36:36.908Z,100986.81
2022-08-04T18:39:11.945Z,100987.22
2022-08-04T18:42:01.249Z,100984.81
2022-08-04T18:44:29.344Z,100987.88
2022-08-04T18:46:57.069Z,100992.09
2022-08-04T18:50:31.823Z,100990.94
2022-08-04T18:52:15.157Z,100989.72
2022-08-04T18:54:43.855Z,100999.22
2022-08-04T18:57:32.824Z,100997.13
2022-08-04T18:59:58.798Z,101006.97
2022-08-04T19:02:28.505Z,101006.31
2022-08-04T19:04:56.617Z,101015.91
2022-08-04T19:07:30.055Z,101007.94
2022-08-04T19:09:58.484Z,101012.59
2022-08-04T19:12:28.441Z,101007.41
2022-08-04T19:17:54.149Z,101004.00
2022-08-04T19:20:26.703Z,101013.09
2022-08-04T19:24:11.559Z,101005.00
2022-08-04T19:26:01.341Z,101007.44
2022-08-04T19:28:36.238Z,100995.00
2022-08-04T19:31:07.150Z,100999.25
2022-08-04T19:33:58.358Z,101002.44
2022-08-04T19:36:27.768Z,101010.22
2022-08-04T19:38:57.905Z,101000.72
2022-08-04T19:42:05.846Z,101004.22
2022-08-04T19:44:34.032Z,101011.72
2022-08-04T19:47:02.333Z,101012.59
2022-08-04T19:52:35.827Z,101008.59
2022-08-04T19:55:09.815Z,101006.22
2022-08-04T19:57:46.189Z,101013.59
2022-08-04T20:00:15.306Z,101015.94
2022-08-04T20:02:42.409Z,101021.38
2022-08-04T20:05:09.715Z,101014.28
2022-08-04T20:07:36.976Z,101028.69
2022-08-04T20:10:06.977Z,101018.25
2022-08-04T20:12:34.805Z,101021.38
2022-08-04T20:15:11.050Z,101018.34
2022-08-04T20:18:07.426Z,101017.56
2022-08-04T20:20:29.964Z,101018.38
2022-08-04T20:22:57.689Z,101018.88
2022-08-04T20:25:36.650Z,101024.34
2022-08-04T20:28:05.533Z,101025.84
2022-08-04T20:30:35.524Z,101024.56
2022-08-04T20:33:04.292Z,101020.94
2022-08-04T20:36:03.472Z,101026.25
2022-08-04T20:38:33.405Z,101027.31
2022-08-04T20:41:01.949Z,101024.19
2022-08-04T20:43:31.411Z,101028.56
2022-08-04T20:45:59.524Z,101023.41
2022-08-04T20:48:33.579Z,101024.25
2022-08-04T20:51:01.144Z,101023.66
2022-08-04T20:53:32.490Z,101026.63
2022-08-04T20:56:19.344Z,101026.31
2022-08-04T20:58:59.460Z,101030.03
2022-08-04T21:01:29.815Z,101026.31
2022-08-04T21:04:27.319Z,101031.41
2022-08-04T21:07:06.850Z,101038.47
2022-08-04T21:09:38.387Z,101038.78
2022-08-04T21:12:26.954Z,101035.19
2022-08-04T21:15:00.103Z,101042.31
2022-08-04T21:17:58.870Z,101043.72
2022-08-04T21:20:16.916Z,101023.19
2022-08-04T21:22:54.728Z,101042.81
2022-08-04T21:25:22.416Z,101041.22
2022-08-04T21:27:49.827Z,101039.81
2022-08-04T21:30:25.153Z,101030.75
2022-08-04T21:32:55.366Z,101040.78
2022-08-04T21:35:30.815Z,101042.34
2022-08-04T21:38:16.555Z,101034.75
2022-08-04T21:40:56.153Z,101031.94
2022-08-04T21:43:28.461Z,101031.84
2022-08-04T21:45:58.030Z,101038.66
2022-08-04T21:48:31.990Z,101042.44
2022-08-04T21:51:13.559Z,101039.88
2022-08-04T21:54:01.807Z,101044.91
2022-08-04T21:56:29.175Z,101032.34
2022-08-04T21:58:58.004Z,101041.53
2022-08-04T22:01:51.781Z,101035.75
2022-08-04T22:04:13.849Z,101038.56
2022-08-04T22:06:42.354Z,101038.28
2022-08-04T22:09:21.659Z,101045.13
2022-08-04T22:11:51.090Z,101039.69
2022-08-04T22:14:27.435Z,101030.16
2022-08-04T22:16:57.756Z,101042.94
2022-08-04T22:19:50.756Z,101036.38
2022-08-04T22:22:25.974Z,101026.78
2022-08-04T22:24:58.650Z,101027.75
2022-08-04T22:27:47.441Z,101027.38
2022-08-04T22:30:17.582Z,101028.56
2022-08-04T22:32:48.654Z,101037.78
2022-08-04T22:35:43.422Z,101022.13
2022-08-04T22:38:20.664Z,101031.28
2022-08-04T22:41:01.150Z,101036.34
2022-08-04T22:43:31.763Z,101032.88
2022-08-04T22:46:03.649Z,101028.25
2022-08-04T22:48:37.296Z,101030.81
2022-08-04T22:51:07.896Z,101019.38
2022-08-04T22:53:36.073Z,101017.03
2022-08-04T22:56:10.523Z,101022.13
2022-08-04T22:58:45.155Z,101019.94
2022-08-04T23:01:17.722Z,101015.25
2022-08-04T23:03:55.274Z,101020.09
2022-08-04T23:06:25.571Z,101012.31
2022-08-04T23:08:55.527Z,101017.72
2022-08-04T23:11:22.585Z,101014.72
2022-08-04T23:13:49.685Z,101012.78
2022-08-04T23:16:17.701Z,101015.59
2022-08-04T23:18:48.395Z,101012.00
2022-08-04T23:21:17.464Z,101017.78
2022-08-04T23:24:00.832Z,101010.28
2022-08-04T23:26:31.744Z,101015.06
2022-08-04T23:28:59.145Z,101007.75
2022-08-04T23:31:40.384Z,101001.63
2022-08-04T23:34:09.326Z,101003.06
2022-08-04T23:36:39.781Z,100992.69
2022-08-04T23:39:07.342Z,100999.66
2022-08-04T23:41:54.702Z,100996.94
2022-08-04T23:44:28.161Z,100994.88
2022-08-04T23:47:02.798Z,100995.28
2022-08-04T23:49:44.421Z,100983.81
2022-08-04T23:52:27.864Z,100980.97
2022-08-04T23:55:01.033Z,100991.53
2022-08-04T23:57:31.681Z,100984.03
